Hillman, Michigan
Current Conditions -  °F | °C
As of 11:54 AM on Friday 19 Dec 2014 (Local Time) from KAPN Reporting Station
Broken Clouds Broken Clouds  
Wind Chill: 17°   Ceiling: 1200
Heat Index: 24°   Visibility: 10mi
Dew Point: 19°   Wind: 6mph
Humidity: 81%   Direction: 350°N
Pressure: 30.27"   Gusts: NA
Location:  45.06°N, 83.9°W
Report Text: KAPN 191654Z AUTO 35005KT 10SM BKN012 M04/M07 A3027 RMK AO2 SLP263 T10441072
Loading
Personal Weather Stations






























Interactive Weather Map New forecast layout! Learn more

10-Day Weather Forecast

Advertisements
Track Severe Weather on mobile